»·PEaware :: ASA2064 KPDX-KMSO

ASA2064 :: KPDX-KMSO

FLIGHT INFORMATION

Flight Status: Arrived
Operator:
Alaska Airlines
More flights by this operator :: More flights under this callsign
Pilot: Will K. (13011)
Aircraft: AIRBUS A320
(A320)
More flights by this aircraft type
Origin: KPDX Portland Intl
United States
Destination: KMSO Missoula Intl
United States
More flights between these airports :: More routes between these airports
Route: +LAVAA6 LAVAA PSC MSO
File this flight plan on PilotEdge
Remarks:
Altitude:
(Current/Filed)
33,000ft
Speed:
(Current/Filed)
460kts
Departed: 10-Sep-18 07:26 PM
Arrived: 10-Sep-18 08:37 PM
Distance/Time
Traveled:
362nm/1:11
Distance/Time
To Go:
Arrived

Flight Plot

Page will automatically refresh every two minutes.

Flight plan parsing failed; only flown route is shown


Map Options




Map Legend


Flown Route
Filed Route
Departure Airport
Arrival Airport
Navaid (VOR, NDB)
Fix

Horizontal Profiles

Position Reports

Time Latitude Longitude Heading Altitude Ground
Speed
10-Sep-18 18:50 45.589444 -122.596372 209 38ft 0kts
10-Sep-18 18:51 45.589444 -122.596372 209 38ft 0kts
10-Sep-18 18:52 45.589444 -122.596372 209 38ft 0kts
10-Sep-18 18:53 45.589444 -122.596372 209 38ft 0kts
10-Sep-18 18:54 45.589444 -122.596372 209 38ft 0kts
10-Sep-18 18:55 45.589444 -122.596372 209 38ft 0kts
10-Sep-18 18:56 45.589444 -122.596372 209 38ft 0kts
10-Sep-18 18:57 45.589444 -122.596372 209 38ft 0kts
10-Sep-18 18:58 45.589444 -122.596372 209 38ft 0kts
10-Sep-18 18:59 45.589444 -122.596372 209 38ft 0kts
10-Sep-18 19:00 45.589444 -122.596372 209 38ft 0kts
10-Sep-18 19:01 45.589444 -122.596372 209 38ft 0kts
10-Sep-18 19:02 45.589444 -122.596372 209 38ft 0kts
10-Sep-18 19:03 45.589444 -122.596372 209 38ft 0kts
10-Sep-18 19:04 45.589444 -122.596372 209 38ft 0kts
10-Sep-18 19:05 45.589444 -122.596372 209 38ft 0kts
10-Sep-18 19:06 45.589444 -122.596372 209 38ft 0kts
10-Sep-18 19:07 45.589444 -122.596372 209 38ft 0kts
10-Sep-18 19:08 45.589444 -122.596372 209 38ft 0kts
10-Sep-18 19:09 45.589444 -122.596372 209 38ft 0kts
10-Sep-18 19:10 45.589444 -122.596372 209 38ft 0kts
10-Sep-18 19:11 45.589793 -122.596141 204 38ft 2kts
10-Sep-18 19:12 45.590061 -122.595895 301 38ft 0kts
10-Sep-18 19:13 45.589931 -122.595609 300 38ft 0kts
10-Sep-18 19:14 45.589928 -122.595600 300 38ft 0kts
10-Sep-18 19:15 45.589928 -122.595600 300 38ft 0kts
10-Sep-18 19:16 45.589928 -122.595600 300 38ft 0kts
10-Sep-18 19:17 45.590091 -122.595990 301 38ft 0kts
10-Sep-18 19:18 45.591193 -122.598818 297 38ft 11kts
10-Sep-18 19:19 45.590686 -122.601167 210 38ft 8kts
10-Sep-18 19:20 45.588443 -122.601035 117 38ft 11kts
10-Sep-18 19:21 45.586648 -122.596434 118 38ft 16kts
10-Sep-18 19:22 45.584084 -122.589848 118 38ft 21kts
10-Sep-18 19:23 45.581650 -122.583789 144 38ft 0kts
10-Sep-18 19:24 45.581650 -122.583789 144 38ft 0kts
10-Sep-18 19:25 45.581650 -122.583789 144 38ft 0kts
10-Sep-18 19:26 45.581650 -122.583789 144 38ft 0kts
10-Sep-18 19:27 45.580890 -122.583918 232 38ft 6kts
10-Sep-18 19:28 45.584719 -122.594640 299 38ft 137kts
10-Sep-18 19:29 45.612164 -122.660515 303 2893ft 221kts
10-Sep-18 19:30 45.652208 -122.739927 333 6312ft 265kts
10-Sep-18 19:31 45.711582 -122.694168 77 9859ft 304kts
10-Sep-18 19:32 45.718384 -122.561549 86 11917ft 369kts
10-Sep-18 19:33 45.724921 -122.411058 86 14560ft 393kts
10-Sep-18 19:34 45.731448 -122.252673 87 16922ft 413kts
10-Sep-18 19:35 45.738071 -122.084905 87 19057ft 432kts
10-Sep-18 19:36 45.744715 -121.909695 87 20988ft 449kts
10-Sep-18 19:37 45.771663 -121.733009 72 22716ft 466kts
10-Sep-18 19:38 45.808470 -121.551756 72 24310ft 481kts
10-Sep-18 19:39 45.845995 -121.365050 72 25784ft 496kts
10-Sep-18 19:40 45.884108 -121.173608 73 27098ft 508kts
10-Sep-18 19:41 45.920099 -120.976482 75 28452ft 516kts
10-Sep-18 19:42 45.955486 -120.774111 74 29577ft 527kts
10-Sep-18 19:43 45.991229 -120.568039 74 30719ft 534kts
10-Sep-18 19:44 46.026727 -120.361079 74 32038ft 536kts
10-Sep-18 19:45 46.061694 -120.154631 75 32979ft 536kts
10-Sep-18 19:46 46.096677 -119.945674 75 32976ft 536kts
10-Sep-18 19:47 46.130751 -119.739606 75 32974ft 537kts
10-Sep-18 19:48 46.165011 -119.529872 75 32979ft 537kts
10-Sep-18 19:49 46.198486 -119.322366 76 32977ft 537kts
10-Sep-18 19:50 46.231888 -119.112711 76 32963ft 536kts
10-Sep-18 19:51 46.264845 -118.903181 76 32981ft 535kts
10-Sep-18 19:52 46.297058 -118.695849 76 32549ft 518kts
10-Sep-18 19:53 46.327844 -118.495084 76 31620ft 513kts
10-Sep-18 19:54 46.357626 -118.298309 77 30685ft 507kts
10-Sep-18 19:55 46.387166 -118.100848 77 29716ft 498kts
10-Sep-18 19:56 46.415838 -117.906693 77 28749ft 489kts
10-Sep-18 19:57 46.443595 -117.716384 77 27775ft 480kts
10-Sep-18 19:58 46.470685 -117.528340 77 26799ft 471kts
10-Sep-18 19:59 46.496775 -117.344990 78 25837ft 463kts
10-Sep-18 20:00 46.522227 -117.163937 78 24869ft 454kts
10-Sep-18 20:01 46.546912 -116.986208 79 23890ft 446kts
10-Sep-18 20:02 46.570893 -116.811475 79 22885ft 437kts
10-Sep-18 20:03 46.594107 -116.640274 79 21916ft 429kts
10-Sep-18 20:04 46.616757 -116.471253 80 20933ft 422kts
10-Sep-18 20:05 46.638556 -116.306689 81 19968ft 413kts
10-Sep-18 20:06 46.659850 -116.144054 81 19036ft 406kts
10-Sep-18 20:07 46.680538 -115.984175 81 18062ft 398kts
10-Sep-18 20:08 46.700659 -115.826838 81 17515ft 394kts
10-Sep-18 20:09 46.720419 -115.670515 81 17057ft 391kts
10-Sep-18 20:10 46.739747 -115.515916 81 16592ft 387kts
10-Sep-18 20:11 46.758740 -115.362249 81 16099ft 384kts
10-Sep-18 20:12 46.777043 -115.212559 82 15036ft 378kts
10-Sep-18 20:13 46.795219 -115.061969 81 15006ft 373kts
10-Sep-18 20:14 46.813385 -114.914353 78 14837ft 365kts
10-Sep-18 20:15 46.814065 -114.771794 100 13184ft 344kts
10-Sep-18 20:16 46.838804 -114.658522 14 12366ft 306kts
10-Sep-18 20:17 46.918437 -114.632744 9 12014ft 291kts
10-Sep-18 20:18 46.997031 -114.610200 356 12118ft 285kts
10-Sep-18 20:19 47.075532 -114.620135 345 12603ft 281kts
10-Sep-18 20:20 47.150548 -114.638102 357 11411ft 279kts
10-Sep-18 20:21 47.219003 -114.584167 52 10519ft 291kts
10-Sep-18 20:22 47.213578 -114.470633 110 10511ft 290kts
10-Sep-18 20:23 47.181238 -114.363429 145 11002ft 285kts
10-Sep-18 20:24 47.108271 -114.349397 185 11011ft 270kts
10-Sep-18 20:25 47.044658 -114.297498 134 10025ft 284kts
10-Sep-18 20:26 46.992465 -114.211114 134 10002ft 273kts
10-Sep-18 20:27 46.943823 -114.130757 134 9122ft 260kts
10-Sep-18 20:28 46.896625 -114.053941 134 9286ft 249kts
10-Sep-18 20:29 46.848669 -113.975490 142 10006ft 258kts
10-Sep-18 20:30 46.794688 -113.998713 261 10013ft 239kts
10-Sep-18 20:31 46.818174 -114.088631 294 10012ft 237kts
10-Sep-18 20:32 46.848077 -114.174356 296 10011ft 237kts
10-Sep-18 20:33 46.907786 -114.182926 26 9707ft 255kts
10-Sep-18 20:34 46.969586 -114.174742 336 8699ft 197kts
10-Sep-18 20:35 47.001948 -114.131203 112 7516ft 218kts
10-Sep-18 20:36 46.962588 -114.118356 225 6508ft 156kts
10-Sep-18 20:37 46.929106 -114.129933 114 4290ft 174kts
10-Sep-18 20:38 46.909270 -114.079739 129 3201ft 45kts
10-Sep-18 20:39 46.911476 -114.080043 309 3204ft 18kts
10-Sep-18 20:40 46.915458 -114.085731 3 3205ft 16kts
10-Sep-18 20:41 46.918440 -114.085146 329 3208ft 7kts
10-Sep-18 20:42 46.919316 -114.085374 108 3208ft 0kts
10-Sep-18 20:43 46.919316 -114.085374 108 3208ft 0kts
10-Sep-18 20:44 46.919316 -114.085374 108 3208ft 0kts
10-Sep-18 20:45 46.919316 -114.085374 108 3208ft 0kts
10-Sep-18 20:46 46.919316 -114.085374 108 3208ft 0kts

Navigation Log

Ident Type
Flight plan parsing failed, navigation log unavailable